Aérodrome :
LOGIN :

S'inscrire | Disclaimer

   EN    FR    IT 

 










Légende :    VFR   VFR Marginal   IFR   IFR Intensif   IFR Très Intensif
Visi : 
Plafond : 
>= 8 km
>= 3000ft
5 à 8 km
1000 à 3000 ft
1500m à 5 km
500 à 1000 ft
800 à 1500m
200 à 500 ft
< 800m
< 200 ft
Symboles :   Orages  Brouillard  Fortes neiges  Fortes précipitations  Vent > 20 kt
SIGMETs :   Divers  Orages  Givrage  Turbulence  Onde Orograph.  Cendres Volcan.







- Altitude de l'aérodrome : 1249 ft


ETSN - Neuburg AB

DERNIER METAR :
  • 160620Z 18003KT 8000 FEW015 SCT080 BKN100 16/15 Q1016 BLU BLU TEMPO WHT

METARs EXPIRÉS :
  • 160607Z 20003KT 8000 -RA FEW015 SCT090 BKN110 15/15 Q1016 BLU BLU TEMPO WHT
  • 160541Z 19003KT 6000 -RA FEW015 BKN090 15/15 Q1016 WHT BLU TEMPO WHT
  • 160520Z 22002KT 3700 -RA VCFG FEW015 BKN110 15/14 Q1016 GRN GRN BECMG BLU
  • 160509Z VRB02KT 3700 -RA VCFG FEW015 BKN120 14/14 Q1016 GRN GRN BECMG YLO
  • 160450Z 21003KT 0800 VCFG FEW090 BKN120 14/14 Q1016 AMB AMB BECMG YLO
  • 160420Z VRB01KT 0700 VCFG MIFG FEW090 BKN130 13/13 Q1016 RED RED BECMG YLO
  • 160410Z VRB02KT 0700 VCFG MIFG FEW090 BKN130 13/13 Q1016 RED RED BECMG YLO
  • 160342Z 33002KT 0800 FG FEW090 BKN130 14/13 Q1015 AMB

TAF TAF ETSN
Valide du 16 à 05h jusqu'au 16 à 14h UTC


160415Z 1605/1614 VRB03KT 2000 BR BKN080
BECMG 1605/1606 VRB03KT 9999 NSW BKN080
TEMPO 1606/1608 22004KT 7000 RA BKN050
PROB30 1612/1614 VRB15G30KT 3000 TSRA BKN030CB BY ETGL
Pas de NOTAMs connus pour ce terrain.



MET'MAP, la Météo Aéronautique d'un coup d'oeil ! - Copyright ORBIFLY Décembre 2007 - Disclaimer

ORBIFLY MET'MAP TEAM :

Programmation & Développement : Alexandra Zaïnal
Conception & Développement : Baudouin d'Aumeries
Co-Programmation & Développement : Marc-Olivier Méhu
Soutien technique & logistique : Manuel Goepfert

Contact : metmap@orbifly.com




SOURCES & CREDITS :

   NOAA